ACT        NSW        VIC        QLD        SA        WA        TAS        NT        INFO        CALC            by VK5ZD

  Atmospheric Gas Attenuation - ITU Rec 676-11   --------------- db/100km ---------------
VIC Stations Date Time Temp RH % AH g/m3 Dew Point Wind Direction Speed kph Gust kph Barometer mB Rainfall Since 9am 24GHz 47GHz 76GHz 122GHz 134GHz 241GHz
Aireys Inlet 15 00:40 11.7 79 8.26 8.3 24 33 1013.1 0.8 19.0 25.9 39.5 103.5 96.5 331.6
Ararat 14 15:00 9.7 63 5.81 3.1 0 1017.9 0 13.8 22.8 30.9 80.5 67.1 228.1
Avalon 15 00:40 11.2 84 8.52 8.6 24 28 1020.4 0 19.5 26.8 41.1 107.9 101.3 348.1
Bairnsdale 15 00:40 9.8 91 8.45 8.4 9 9 1021.4 0 19.5 27.2 41.6 109.1 102.2 351.3
Ballarat 15 00:40 4.2 90 5.8 2.7 15 17 1019.9 0 14.0 24.3 33.1 86.4 72.0 244.5
Ben Nevis 15 00:40 3 94 5.59 2.1 24 32 1013.1 0 13.6 24.0 32.5 84.8 69.8 236.8
Bendigo 15 00:40 3 92 5.48 1.8 13 13 1019 0.2 13.3 24.0 32.3 84.1 68.7 232.7
Cape Nelson 15 00:40 10.9 79 7.86 7.4 19 24 1020.6 0 18.1 25.8 38.6 101.0 92.7 318.1
Cape Otway 15 00:40 11.9 87 9.22 9.8 28 43 1016.4 1.6 21.0 27.6 43.5 114.3 109.6 377.5
Casterton 15 00:40 5.5 97 6.82 5.1 0 0 1019.7 5.2 16.1 25.6 36.8 96.2 84.6 289.1
Cerberus 15 00:40 10.4 83 8 7.6 7 11 1021.3 0 18.5 26.2 39.4 103.3 95.3 326.9
Charlton 15 00:40 7 100 7.75 7 9 11 1018.9 12.4 18.1 26.7 40.0 104.7 95.8 328.5
Coldstream 15 00:40 2.2 100 5.64 2.2 0 0 1020.2 0 13.7 24.6 33.3 86.9 71.7 243.1
Combienbar 15 00:40 6.1 89 6.51 4.4 0 0 1020.8 2.2 15.4 25.0 35.3 92.1 79.8 272.2
Dartmoor 15 00:40 5.8 98 7.02 5.5 4 4 1020.5 0 16.6 25.9 37.5 98.2 87.1 297.9
East Sale Airport 15 00:40 10.7 91 8.94 9.3 11 15 1021.8 1 20.5 27.7 43.2 113.4 107.9 371.2
Edenhope 15 00:40 7 88 6.82 5.1 11 13 1013.1 7.4 16.1 24.9 35.8 93.7 82.5 282.0
Eildon Fire Tower 15 00:40 6.6 83 6.27 3.9 20 28 1013.1 0 14.9 24.1 33.7 88.2 75.6 257.5
Essendon Airport 15 00:40 6.9 100 7.7 6.9 11 11 1020.1 0 18.0 26.7 39.9 104.4 95.3 326.8
Falls Creek 15 00:40 -0.3 99 4.7 -0.4 20 22 1019 0.4 11.8 23.6 30.3 79.0 60.8 204.6
Ferny Creek 15 00:40 6.2 100 7.36 6.3 13 17 1013.1 0 17.3 26.1 38.4 100.7 90.9 311.1
Frankston (Ballam Park) 15 00:40 9.7 100 9.22 9.7 9 13 1013.1 0 21.1 28.2 44.6 117.2 112.5 387.4
Gabo Island 15 00:40 13.3 77 8.9 9.4 20 26 1019.9 1 20.2 26.8 41.6 109.1 103.6 356.6
Geelong Racecourse 15 00:40 10.8 84 8.3 8.3 6 7 1013.1 0 19.1 26.3 40.1 105.2 98.2 337.3
Gelantipy 15 00:40 4.7 99 6.6 4.6 0 0 1020.8 2.4 15.7 25.5 36.3 94.8 82.5 281.5
Hamilton 15 00:40 5.3 91 6.31 4 11 13 1020 0 15.0 24.8 34.8 90.8 77.8 265.2
Hogan Island 15 00:40 9.4 82 7.42 6.5 41 46 1022.5 0 17.3 25.6 37.6 98.3 88.7 303.7
Hopetoun Airport 15 00:40 7.5 100 8.01 7.5 19 22 1018 16 18.6 27.0 40.8 106.9 98.8 339.0
Horsham 15 00:40 6 93 6.75 5 17 17 1019.5 7.4 16.0 25.3 36.2 94.8 83.1 283.8
Hunters Hill 15 00:40 5.4 77 5.38 1.8 4 4 1013.1 0 13.0 23.0 30.7 80.0 64.9 220.0
Kanagulk 15 00:40 4.9 93 6.28 3.9 0 0 1019.6 3.8 15.0 24.9 34.8 90.9 77.8 265.1
Kerang 14 15:00 9.4 80 7.24 6.2 0 1013.1 0.2 16.9 24.9 36.4 95.4 85.6 293.0
Kilmore Gap 15 00:40 5.6 92 6.51 4.4 17 17 1020.2 0 15.5 25.1 35.5 92.7 80.3 273.8
Kyabram 15 00:40 8.5 87 7.43 6.5 6 7 1013.1 0 17.3 25.5 37.6 98.6 89.1 305.4
Lakes Entrance 14 15:00 11 100 10.01 11 4 1013.1 0.4 22.8 29.1 47.3 124.4 121.9 420.3
Latrobe Valley 15 00:40 9.6 92 8.43 8.4 9 13 1021.6 1.8 19.4 27.2 41.6 109.2 102.2 351.3
Laverton 15 00:40 7.7 100 8.11 7.7 7 9 1020.4 0 18.8 27.2 41.2 108.1 100.2 343.7
Longerenong 15 00:40 6.2 92 6.77 5 9 11 1013.1 6.8 16.0 25.1 36.0 94.1 82.7 282.5
Mallacoota 15 00:40 9 100 8.82 9 9 11 1020.2 0.4 20.3 28.0 43.6 114.4 108.5 373.0
Mangalore 15 00:40 5.6 95 6.72 4.9 9 11 1019 0 15.9 25.4 36.3 94.9 83.1 283.7
Melbourne (Olympic Park) 15 00:40 6.7 100 7.6 6.7 0 0 1020.2 0 17.8 26.6 39.5 103.6 94.2 322.7
Melbourne Airport 15 00:40 4.7 94 6.27 3.8 7 7 1020.3 0 15.0 24.9 34.9 91.1 77.9 265.4
Mildura 15 00:40 9.9 100 9.34 9.9 7 9 1016.8 0.6 21.4 28.5 45.2 118.7 114.3 393.5
Moorabbin Airport 15 00:40 8.7 94 8.13 7.8 17 19 1020.3 0 18.8 26.9 40.8 106.9 99.1 340.2
Mortlake 15 00:40 6.9 100 7.7 7 6 6 1020.6 0 18.0 26.7 39.9 104.5 95.4 326.9
Mount Baw Baw 15 00:40 0.3 100 4.95 0.3 19 22 1013.1 0.6 12.3 23.6 30.9 80.6 63.4 213.9
Mount Buller 15 00:40 0 99 4.8 -0.1 20 24 1013.1 0 12.0 23.5 30.4 79.2 61.6 207.5
Mount Gellibrand 15 00:40 9.1 93 8.25 8.1 26 30 1020.4 0 19.1 27.0 41.1 107.7 100.3 344.4
Mount Hotham 15 00:40 -0.5 100 4.69 -0.5 24 32 1013.1 0.4 11.7 23.4 30.1 78.5 60.5 203.6
Mount Hotham Airport 15 00:40 2.2 100 5.64 2.2 7 11 1019.7 0.4 13.7 24.5 33.3 86.8 71.6 243.0
Mount Moornapa 15 00:40 7.3 91 7.19 5.9 2 6 1013.1 0.8 16.9 25.4 37.2 97.4 87.2 298.5
Mount Nowa Nowa 15 00:40 7.9 93 7.64 6.8 2 4 1013.1 0.2 17.8 26.0 38.8 101.7 92.7 317.8
Mount William 15 00:40 0.1 100 4.89 0.1 30 35 1013.1 0.6 12.2 23.6 30.7 80.1 62.7 211.6
Nhill Aerodrome 15 00:40 7.2 95 7.46 6.5 22 26 1018.5 11 17.4 26.1 38.6 101.1 91.5 313.3
Omeo 15 00:40 6.1 92 6.73 4.9 2 6 1021.3 0 15.9 25.3 36.2 94.6 82.9 282.9
Orbost 15 00:40 8.2 97 8.13 7.7 6 6 1021.1 0.4 18.8 27.1 41.1 107.7 99.8 342.7
Point Cook 15 00:40 10.4 87 8.39 8.3 22 28 1013.1 0 19.3 26.5 40.7 106.7 99.9 343.4
Port Fairy 15 00:40 10.6 77 7.52 6.7 11 15 1020.7 0 17.4 25.3 37.3 97.7 88.5 303.3
Portland Airport 15 00:40 4.8 95 6.38 4.1 0 0 1020.8 0 15.2 25.1 35.3 92.2 79.4 270.5
Pound Creek 15 00:40 9.6 93 8.52 8.5 11 13 1021.9 0 19.6 27.4 42.0 110.3 103.5 355.8
Puckapunyal West (Defence) 15 00:40 6.9 80 6.16 3.7 11 15 1013.1 0 14.7 23.9 33.2 86.7 73.8 251.4
Puckapunyal-Lyon Hill (Defence) 15 00:40 7 85 6.59 4.6 9 9 1013.1 0 15.6 24.5 34.9 91.2 79.4 271.1
Redesdale 15 00:40 3.1 94 5.63 2.3 7 9 1013.1 0 13.7 24.0 32.6 85.1 70.2 238.4
Rhyll 15 00:40 10.6 84 8.2 8.1 30 33 1021.4 0 18.9 26.5 40.1 105.2 97.7 335.7
Rutherglen 15 00:40 5.7 99 7.05 5.6 0 0 1013.1 0 16.6 25.7 37.4 97.9 87.1 297.9
Scoresby 15 00:40 4.1 98 6.28 3.8 0 0 1013.1 0 15.0 24.8 34.9 91.2 78.2 266.3
She Oaks 15 00:40 8.8 100 8.71 8.8 9 11 1020.4 0 20.1 27.9 43.2 113.4 107.2 368.5
Shepparton 15 00:40 6.3 98 7.26 6 6 6 1019.1 0 17.1 26.1 38.2 100.1 89.8 307.3
Stawell 15 00:40 4.6 99 6.56 4.5 6 7 1019.5 2.8 15.6 25.4 36.1 94.4 82.0 279.6
Swan Hill 15 00:40 7.9 94 7.72 7 7 9 1018.1 10 18.0 26.4 39.3 103.1 94.2 323.0
Tatura 15 00:40 6.4 98 7.31 6.1 7 9 1013.1 0 17.2 25.9 38.1 99.9 89.9 307.8
Victoria Portable Aws G (Cfa) 15 00:00 8.1 97 8.07 7.6 2 2 1013.1 6.8 18.7 26.7 40.5 106.3 98.5 337.9
Viewbank 15 00:40 5.9 100 7.22 6 0 0 1020.1 0 17.0 26.2 38.3 100.3 89.8 307.2
Walpeup 15 00:40 8.3 98 8.26 8 7 9 1013.1 4 19.1 27.0 41.2 108.2 100.9 346.4
Wangaratta 15 00:40 6.8 92 7.04 5.6 6 7 1018.9 0 16.6 25.6 37.1 97.0 86.2 294.7
Warracknabeal Airport 15 00:40 6.9 94 7.24 6 17 19 1019 13.2 17.0 25.9 37.9 99.1 88.8 304.0
Warragul (Nilma North) 15 00:40 9.2 100 8.93 9.3 13 17 1013.1 0 20.5 27.8 43.6 114.6 109.1 375.4
Warrnambool 15 00:40 7.6 89 7.17 5.9 9 9 1020.8 0 16.8 25.6 37.3 97.6 87.2 298.3
Westmere 15 00:40 4 92 5.85 2.9 6 6 1020.2 0 14.1 24.4 33.4 87.2 72.9 247.5
Wilsons Promontory 15 00:40 11 70 7.01 5.7 37 44 1022.3 0.6 16.3 24.5 35.2 91.9 81.5 278.7
Wycheproof (Cfa) 15 00:20 7.6 100 8.06 7.6 9 13 1013.1 4.4 18.7 26.8 40.7 106.8 99.0 339.6
Yanakie 15 00:40 11.3 84 8.57 8.8 15 22 1013.1 1 19.6 26.6 40.9 107.5 101.2 348.0
Yarram Airport 15 00:40 11 75 7.51 6.7 15 19 1021.9 2.4 17.4 25.3 37.2 97.2 88.0 301.6
Yarrawonga 15 00:40 6.5 100 7.5 6.5 4 4 1018.9 0 17.6 26.4 39.1 102.6 92.9 318.2

Last Refresh: 15-Jun-2024 00:26:26

Bureau of Meteorology